• Join FlightAware (Why Join?)
  • Login
  • US Flag 
08:54AM EDT


 

Airport Tracker/Info


-or-


 

Live Flight TrackerFlight Track Log ✈ SWA1707 ✈ 02-May-2013 ✈ KBOS - KBNA

Flight Track Log - Related Links

Times and Time Zones

All times are in EDT time to prevent confusion due to time zone crossing. See the SWA1707 flight status page for this flight to view local times or setup timezone preferences in your user account.

Time Position Orientation Groundspeed Altitude Reporting Facility
EDT Latitude Longitude Course Direction KTS MPH feet Rate Location/Type
02:50PM 42.3667 -70.9833 79° East 156 180 800  Level KA90
02:52PM 42.3833 -70.8661 79° East 227 261 4,400 2,580 Climbing Boston Center
02:53PM 42.3861 -70.7761 88° East 232 267 7,700 3,300 Climbing Boston Center
02:54PM 42.3083 -70.7247 154° Southeast 213 245 11,000 2,460 Climbing Boston Center
02:55PM 42.2281 -70.7969 214° Southwest 255 293 12,700 1,980 Climbing Boston Center
02:56PM 42.2172 -70.9122 263° West 271 312 15,000 2,280 Climbing Boston Center
02:57PM 42.2128 -71.0636 268° West 365 420 17,300 1,800 Climbing Boston Center
02:58PM 42.2103 -71.1956 269° West 383 441 18,700 1,740 Climbing Boston Center
02:59PM 42.2078 -71.3639 269° West 400 460 20,800 1,920 Climbing Boston Center
03:00PM 42.2050 -71.5181 269° West 406 467 22,600 1,620 Climbing Boston Center
03:01PM 42.1975 -71.6583 266° West 411 473 24,100 1,380 Climbing Boston Center
03:02PM 42.1922 -71.8153 267° West 417 480 25,400 1,440 Climbing Boston Center
03:03PM 42.1869 -71.9778 268° West 423 487 27,000 1,260 Climbing Boston Center
03:04PM 42.1811 -72.1375 267° West 428 493 28,000 1,260 Climbing Boston Center
03:05PM 42.1753 -72.3169 268° West 428 493 29,600 1,440 Climbing Boston Center
03:06PM 42.1692 -72.4764 267° West 433 498 30,900 1,200 Climbing Boston Center
03:07PM 42.1628 -72.6361 267° West 433 498 32,000 1,260 Climbing Boston Center
03:08PM 42.1228 -72.7900 251° West 427 491 33,500 1,020 Climbing Boston Center
03:09PM 42.0556 -72.8986 230° Southwest 422 486 34,100 900 Climbing Boston Center
03:10PM 41.9653 -73.0489 231° Southwest 450 518 35,300 900 Climbing Boston Center
03:11PM 41.8625 -73.1481 216° Southwest 444 511 36,000 300 Climbing Boston Center
03:12PM 41.7578 -73.2389 213° Southwest 455 524 36,000  Level Boston Center
03:13PM 41.6528 -73.3292 213° Southwest 460 529 36,000  Level Boston Center
03:15PM 41.5339 -73.5092 229° Southwest 428 493 36,000  Level New York Center
03:16PM 41.4539 -73.6361 230° Southwest 441 507 36,000  Level New York Center
03:17PM 41.3736 -73.7597 229° Southwest 452 520 36,000  Level New York Center
03:18PM 41.2892 -73.8858 228° Southwest 457 526 36,000  Level New York Center
03:19PM 41.2047 -74.0086 228° Southwest 452 520 36,000  Level New York Center
03:20PM 41.1264 -74.1317 230° Southwest 452 520 36,000  Level New York Center
03:21PM 41.0553 -74.2794 237° Southwest 447 514 36,000  Level New York Center
03:22PM 40.9886 -74.4161 237° Southwest 447 514 36,000  Level New York Center
03:23PM 40.9261 -74.5528 239° Southwest 442 509 36,000  Level New York Center
03:24PM 40.8633 -74.6836 238° Southwest 437 503 36,000  Level New York Center
03:25PM 40.8006 -74.8200 239° Southwest 437 503 36,000 -60 Level New York Center
03:26PM 40.7394 -74.9586 240° Southwest 437 503 35,900  Descending New York Center
03:27PM 40.6783 -75.0892 238° Southwest 437 503 36,000  Climbing New York Center
03:28PM 40.6172 -75.2219 239° Southwest 437 503 36,000  Level New York Center
03:29PM 40.5578 -75.3575 240° Southwest 437 503 36,000  Level New York Center
03:30PM 40.4964 -75.4897 239° Southwest 432 497 36,000  Level New York Center
03:31PM 40.4347 -75.6219 239° Southwest 432 497 36,000  Level New York Center
03:32PM 40.3753 -75.7511 239° Southwest 426 490 36,000 -60 Level New York Center
03:33PM 40.3153 -75.8831 239° Southwest 426 490 35,900  Descending New York Center
03:34PM 40.2492 -76.0142 237° Southwest 440 506 36,000  Climbing New York Center
03:35PM 40.1892 -76.1456 239° Southwest 434 499 36,000  Level New York Center
03:36PM 40.1294 -76.2631 236° Southwest 434 499 36,000  Level New York Center
03:37PM 40.0711 -76.3942 240° Southwest 434 499 36,000  Level New York Center
03:38PM 40.0125 -76.5278 240° Southwest 434 499 36,000  Level New York Center
03:39PM 39.9500 -76.6553 237° Southwest 429 494 36,000  Level New York Center
03:40PM 39.8506 -76.8672 239° Southwest 426 490 36,000  Level Washington Center
03:41PM 39.7908 -76.9956 239° Southwest 426 490 36,000  Level Washington Center
03:42PM 39.7289 -77.1267 238° Southwest 426 490 36,000  Level Washington Center
03:43PM 39.6689 -77.2547 239° Southwest 426 490 36,000  Level Washington Center
03:44PM 39.6086 -77.3800 238° Southwest 426 490 36,000  Level Washington Center
03:45PM 39.5464 -77.5131 239° Southwest 426 490 36,000  Level Washington Center
03:46PM 39.4858 -77.6406 238° Southwest 426 490 36,000  Level Washington Center
03:47PM 39.4253 -77.7706 239° Southwest 426 490 36,000  Level Washington Center
03:48PM 39.3622 -77.9136 240° Southwest 426 490 36,000  Level Washington Center
03:49PM 39.3072 -78.0458 242° Southwest 426 490 36,000  Level Washington Center
03:50PM 39.2544 -78.1781 243° Southwest 426 490 36,000  Level Washington Center
03:51PM 39.2017 -78.3128 243° Southwest 421 484 36,000  Level Washington Center
03:52PM 39.1486 -78.4447 243° Southwest 421 484 36,000  Level Washington Center
03:53PM 39.0975 -78.5739 243° Southwest 416 479 36,000  Level Washington Center
03:54PM 39.0439 -78.7081 243° Southwest 416 479 36,000  Level Washington Center
03:55PM 38.9906 -78.8364 242° Southwest 416 479 36,000  Level Washington Center
03:56PM 38.9369 -78.9650 242° Southwest 416 479 36,000  Level Washington Center
03:57PM 38.8831 -79.0983 243° Southwest 421 484 36,000  Level Washington Center
03:58PM 38.8353 -79.2347 246° West 421 484 36,000  Level Washington Center
03:59PM 38.8100 -79.3800 257° West 416 479 36,000  Level Washington Center
04:00PM 38.7822 -79.5278 256° West 416 479 36,000  Level Washington Center
04:01PM 38.7564 -79.6756 257° West 433 498 36,000  Level Washington Center
04:02PM 38.7308 -79.8178 257° West 427 491 36,000  Level Washington Center
04:03PM 38.7050 -79.9575 257° West 416 479 36,000  Level Washington Center
04:05PM 38.6589 -80.1872 256° West 406 467 36,000  Level Indianapolis Center
04:06PM 38.6333 -80.3297 257° West 412 474 36,000  Level Indianapolis Center
04:07PM 38.5986 -80.5017 256° West 414 476 36,000  Level Indianapolis Center
04:08PM 38.5719 -80.6431 256° West 409 471 36,000  Level Indianapolis Center
04:09PM 38.5461 -80.7836 257° West 405 466 36,000  Level Indianapolis Center
04:10PM 38.5183 -80.9231 256° West 403 464 36,000  Level Indianapolis Center
04:11PM 38.4919 -81.0619 256° West 403 464 36,000  Level Indianapolis Center
04:12PM 38.4642 -81.2019 256° West 404 465 36,000  Level Indianapolis Center
04:13PM 38.4353 -81.3431 255° West 407 468 36,000  Level Indianapolis Center
04:14PM 38.4072 -81.4861 256° West 410 472 36,000  Level Indianapolis Center
04:15PM 38.3722 -81.6592 256° West 415 478 36,000  Level Indianapolis Center
04:16PM 38.3425 -81.8017 255° West 414 476 36,000  Level Indianapolis Center
04:17PM 38.3022 -81.9378 249° West 408 470 36,000  Level Indianapolis Center
04:19PM 38.2642 -82.0758 251° West 411 473 36,000  Level Indianapolis Center
04:20PM 38.2258 -82.2125 250° West 411 473 36,000  Level Indianapolis Center
04:21PM 38.1878 -82.3469 250° West 405 466 36,000  Level Indianapolis Center
04:22PM 38.1472 -82.4819 249° West 408 470 36,000  Level Indianapolis Center
04:23PM 38.0758 -82.6322 239° Southwest 413 475 36,000  Level Indianapolis Center
04:24PM 38.0164 -82.7594 239° Southwest 418 481 36,000  Level Indianapolis Center
04:25PM 37.9575 -82.8872 240° Southwest 420 483 36,000  Level Indianapolis Center
04:26PM 37.8992 -83.0144 240° Southwest 418 481 36,000  Level Indianapolis Center
04:27PM 37.8392 -83.1383 239° Southwest 415 478 36,000 -540 Level Indianapolis Center
04:28PM 37.7722 -83.2811 239° Southwest 406 467 34,900 -960 Descending Indianapolis Center
04:29PM 37.7144 -83.4025 239° Southwest 404 465 34,000 -480 Descending Indianapolis Center
04:30PM 37.6569 -83.5242 239° Southwest 403 464 34,000  Level Indianapolis Center
04:31PM 37.5981 -83.6478 239° Southwest 410 472 34,000 -240 Level Indianapolis Center
04:33PM 37.4675 -83.9200 239° Southwest 422 486 33,300 -600 Descending Indianapolis Center
04:34PM 37.4064 -84.0456 239° Southwest 423 487 32,300 -1,020 Descending Indianapolis Center
04:35PM 37.3464 -84.1686 239° Southwest 417 480 31,300 -960 Descending Indianapolis Center
04:36PM 37.2861 -84.2922 239° Southwest 416 479 30,400 -960 Descending Indianapolis Center
04:37PM 37.2269 -84.4144 239° Southwest 412 474 29,400 -1,080 Descending Indianapolis Center
04:38PM 37.1597 -84.5525 239° Southwest 400 460 28,200 -1,080 Descending Indianapolis Center
04:39PM 37.1036 -84.6672 239° Southwest 389 448 27,200 -1,020 Descending Indianapolis Center
04:41PM 37.0263 -84.8187 237° Southwest  Level FlightAware Approximate
04:44PM 36.8350 -85.2236 242° Southwest 364 419 22,200  Level Indianapolis Center
04:45PM 36.7847 -85.3289 247° West 356 410 22,000 -540 Descending Indianapolis Center
04:46PM 36.7253 -85.4564 240° Southwest 354 407 21,100 -1,380 Descending Indianapolis Center
04:47PM 36.7216 -85.4353 247° West  Level FlightAware Approximate
04:47PM 36.6761 -85.5594 239° Southwest 348 400 19,200  Level Indianapolis Center
04:48PM 36.6220 -85.6394 238° Southwest  Level FlightAware Approximate
04:49PM 36.5636 -85.7561 238° Southwest  Level FlightAware Approximate
04:49PM 36.6286 -85.6600 240° Southwest 341 392 17,500  Level Indianapolis Center
04:50PM 36.5102 -85.8762 242° Southwest  Level FlightAware Approximate
04:50PM 36.5797 -85.7622 239° Southwest 343 395 15,500  Level Indianapolis Center
04:51PM 36.5281 -85.8708 239° Southwest 336 387 13,300 -1,980 Descending Indianapolis Center
04:52PM 36.4811 -85.9692 239° Southwest 331 381 11,400 -1,560 Descending Indianapolis Center
04:53PM 36.4369 -86.0636 240° Southwest 318 366 10,100 -1,380 Descending Indianapolis Center
04:54PM 36.4019 -86.1492 243° Southwest 299 344 8,700 -1,500 Descending Memphis Center
04:55PM 36.3697 -86.2486 248° West 292 336 7,200 -1,500 Descending Memphis Center
04:56PM 36.3414 -86.3378 248° West 279 321 5,800 -1,440 Descending Memphis Center
04:57PM 36.3128 -86.4217 247° West 274 315 4,400 -1,380 Descending Memphis Center
04:58PM 36.2864 -86.5053 249° West 274 315 3,100 -900 Descending Memphis Center
04:59PM 36.2506 -86.5661 234° Southwest 254 292 2,600 -600 Descending Memphis Center
05:00PM 36.2147 -86.6142 227° Southwest 211 243 1,900 -480 Descending Memphis Center
05:01PM 36.1800 -86.6414 212° Southwest 170 196 1,700 -480 Descending Memphis Center
05:02PM 36.1469 -86.6531 196° South 154 177 1,000 -540 Descending Memphis Center
05:03PM 36.1100 -86.6728 203° Southwest 146 168 700 -300 Descending Memphis Center
05:05PM 36.1167 -86.6667 287° West  Level FlightAware Approximate
05:12PM 36.1245 -86.6782 287° West  Level Estimated
05:13PM 36.1245 -86.6782 287° West  Level Estimated
05:14PM 36.1245 -86.6782 287° West  Level Estimated
05:15PM 36.1245 -86.6782 287° West  Level Estimated
05:16PM 36.1245 -86.6782 287° West  Level Estimated
05:17PM 36.1245 -86.6782 287° West  Level Estimated
05:18PM 36.1245 -86.6782 287° West  Level Estimated